sensor_id;sensor_type;location;lat;lon;timestamp;temperature;humidity
3678;DHT22;1855;50.934;6.958;2023-10-08T00:02:05;19.50;77.20
3678;DHT22;1855;50.934;6.958;2023-10-08T00:04:32;19.40;77.40
3678;DHT22;1855;50.934;6.958;2023-10-08T00:07:04;19.40;77.30
3678;DHT22;1855;50.934;6.958;2023-10-08T00:09:33;19.40;77.30
3678;DHT22;1855;50.934;6.958;2023-10-08T00:12:03;19.30;77.50
3678;DHT22;1855;50.934;6.958;2023-10-08T00:14:30;19.30;77.70
3678;DHT22;1855;50.934;6.958;2023-10-08T00:16:58;19.30;77.90
3678;DHT22;1855;50.934;6.958;2023-10-08T00:19:25;19.30;78.10
3678;DHT22;1855;50.934;6.958;2023-10-08T00:21:58;19.20;78.60
3678;DHT22;1855;50.934;6.958;2023-10-08T00:24:31;19.20;78.60
3678;DHT22;1855;50.934;6.958;2023-10-08T00:26:59;19.10;78.80
3678;DHT22;1855;50.934;6.958;2023-10-08T00:29:25;19.10;79.00
3678;DHT22;1855;50.934;6.958;2023-10-08T00:31:56;19.00;79.30
3678;DHT22;1855;50.934;6.958;2023-10-08T00:34:23;19.00;79.40
3678;DHT22;1855;50.934;6.958;2023-10-08T00:36:52;18.90;79.50
3678;DHT22;1855;50.934;6.958;2023-10-08T00:39:20;18.90;79.70
3678;DHT22;1855;50.934;6.958;2023-10-08T00:41:52;18.90;79.80
3678;DHT22;1855;50.934;6.958;2023-10-08T00:44:24;18.90;79.80
3678;DHT22;1855;50.934;6.958;2023-10-08T00:46:55;18.90;80.20
3678;DHT22;1855;50.934;6.958;2023-10-08T00:49:27;18.80;80.10
3678;DHT22;1855;50.934;6.958;2023-10-08T00:52:06;18.80;80.40
3678;DHT22;1855;50.934;6.958;2023-10-08T00:54:52;18.80;80.50
3678;DHT22;1855;50.934;6.958;2023-10-08T00:57:33;18.70;80.20
3678;DHT22;1855;50.934;6.958;2023-10-08T01:00:02;18.70;80.70
3678;DHT22;1855;50.934;6.958;2023-10-08T01:02:32;18.70;80.30
3678;DHT22;1855;50.934;6.958;2023-10-08T01:05:12;18.70;80.50
3678;DHT22;1855;50.934;6.958;2023-10-08T01:07:44;18.70;80.20
3678;DHT22;1855;50.934;6.958;2023-10-08T01:10:14;18.70;80.30
3678;DHT22;1855;50.934;6.958;2023-10-08T01:12:47;18.70;80.10
3678;DHT22;1855;50.934;6.958;2023-10-08T01:15:29;18.70;80.20
3678;DHT22;1855;50.934;6.958;2023-10-08T01:17:56;18.70;80.50
3678;DHT22;1855;50.934;6.958;2023-10-08T01:20:27;18.60;80.60
3678;DHT22;1855;50.934;6.958;2023-10-08T01:23:05;18.60;80.50
3678;DHT22;1855;50.934;6.958;2023-10-08T01:25:36;18.50;80.90
3678;DHT22;1855;50.934;6.958;2023-10-08T01:28:04;18.50;81.10
3678;DHT22;1855;50.934;6.958;2023-10-08T01:30:41;18.40;81.20
3678;DHT22;1855;50.934;6.958;2023-10-08T01:33:12;18.40;81.40
3678;DHT22;1855;50.934;6.958;2023-10-08T01:35:40;18.30;81.80
3678;DHT22;1855;50.934;6.958;2023-10-08T01:38:08;18.30;81.70
3678;DHT22;1855;50.934;6.958;2023-10-08T01:40:39;18.30;81.70
3678;DHT22;1855;50.934;6.958;2023-10-08T01:43:06;18.20;81.70
3678;DHT22;1855;50.934;6.958;2023-10-08T01:45:36;18.20;81.90
3678;DHT22;1855;50.934;6.958;2023-10-08T01:48:06;18.10;82.00
3678;DHT22;1855;50.934;6.958;2023-10-08T01:50:35;18.10;81.70
3678;DHT22;1855;50.934;6.958;2023-10-08T01:53:02;18.10;81.90
3678;DHT22;1855;50.934;6.958;2023-10-08T01:55:32;18.10;81.80
3678;DHT22;1855;50.934;6.958;2023-10-08T01:58:12;18.00;82.80
3678;DHT22;1855;50.934;6.958;2023-10-08T02:00:42;18.00;82.20
3678;DHT22;1855;50.934;6.958;2023-10-08T02:03:11;18.00;82.10
3678;DHT22;1855;50.934;6.958;2023-10-08T02:05:39;18.00;82.20
3678;DHT22;1855;50.934;6.958;2023-10-08T02:08:07;18.00;82.30
3678;DHT22;1855;50.934;6.958;2023-10-08T02:10:36;17.90;82.20
3678;DHT22;1855;50.934;6.958;2023-10-08T02:13:04;17.90;82.40
3678;DHT22;1855;50.934;6.958;2023-10-08T02:15:31;17.90;82.60
3678;DHT22;1855;50.934;6.958;2023-10-08T02:17:58;17.90;82.80
3678;DHT22;1855;50.934;6.958;2023-10-08T02:20:25;17.80;83.10
3678;DHT22;1855;50.934;6.958;2023-10-08T02:22:53;17.70;83.30
3678;DHT22;1855;50.934;6.958;2023-10-08T02:25:20;17.70;83.50
3678;DHT22;1855;50.934;6.958;2023-10-08T02:27:49;17.60;83.60
3678;DHT22;1855;50.934;6.958;2023-10-08T02:30:16;17.60;84.10
3678;DHT22;1855;50.934;6.958;2023-10-08T02:32:44;17.60;84.40
3678;DHT22;1855;50.934;6.958;2023-10-08T02:35:11;17.50;84.30
3678;DHT22;1855;50.934;6.958;2023-10-08T02:37:38;17.50;84.70
3678;DHT22;1855;50.934;6.958;2023-10-08T02:40:07;17.50;84.70
3678;DHT22;1855;50.934;6.958;2023-10-08T02:42:43;17.40;84.70
3678;DHT22;1855;50.934;6.958;2023-10-08T02:45:12;17.50;84.80
3678;DHT22;1855;50.934;6.958;2023-10-08T02:47:41;17.50;84.50
3678;DHT22;1855;50.934;6.958;2023-10-08T02:50:10;17.50;84.20
3678;DHT22;1855;50.934;6.958;2023-10-08T02:52:37;17.50;84.10
3678;DHT22;1855;50.934;6.958;2023-10-08T02:55:05;17.50;84.10
3678;DHT22;1855;50.934;6.958;2023-10-08T02:57:43;17.50;84.40
3678;DHT22;1855;50.934;6.958;2023-10-08T03:00:13;17.50;84.10
3678;DHT22;1855;50.934;6.958;2023-10-08T03:02:41;17.50;84.00
3678;DHT22;1855;50.934;6.958;2023-10-08T03:05:08;17.40;84.50
3678;DHT22;1855;50.934;6.958;2023-10-08T03:07:38;17.50;83.90
3678;DHT22;1855;50.934;6.958;2023-10-08T03:10:07;17.50;83.90
3678;DHT22;1855;50.934;6.958;2023-10-08T03:12:43;17.50;84.40
3678;DHT22;1855;50.934;6.958;2023-10-08T03:15:14;17.50;84.40
3678;DHT22;1855;50.934;6.958;2023-10-08T03:17:54;17.40;84.10
3678;DHT22;1855;50.934;6.958;2023-10-08T03:20:23;17.40;84.20
3678;DHT22;1855;50.934;6.958;2023-10-08T03:23:04;17.40;83.80
3678;DHT22;1855;50.934;6.958;2023-10-08T03:25:32;17.40;83.70
3678;DHT22;1855;50.934;6.958;2023-10-08T03:28:07;17.40;83.60
3678;DHT22;1855;50.934;6.958;2023-10-08T03:30:36;17.40;83.80
3678;DHT22;1855;50.934;6.958;2023-10-08T03:33:13;17.40;83.60
3678;DHT22;1855;50.934;6.958;2023-10-08T03:35:47;17.40;83.80
3678;DHT22;1855;50.934;6.958;2023-10-08T03:38:14;17.40;83.90
3678;DHT22;1855;50.934;6.958;2023-10-08T03:40:54;17.30;83.90
3678;DHT22;1855;50.934;6.958;2023-10-08T03:43:29;17.30;83.90
3678;DHT22;1855;50.934;6.958;2023-10-08T03:46:09;17.30;83.90
3678;DHT22;1855;50.934;6.958;2023-10-08T03:48:41;17.30;84.10
3678;DHT22;1855;50.934;6.958;2023-10-08T03:51:10;17.30;84.40
3678;DHT22;1855;50.934;6.958;2023-10-08T03:53:37;17.30;84.20
3678;DHT22;1855;50.934;6.958;2023-10-08T03:56:24;17.20;84.40
3678;DHT22;1855;50.934;6.958;2023-10-08T03:58:51;17.20;84.80
3678;DHT22;1855;50.934;6.958;2023-10-08T04:01:22;17.20;84.60
3678;DHT22;1855;50.934;6.958;2023-10-08T04:03:49;17.20;84.70
3678;DHT22;1855;50.934;6.958;2023-10-08T04:06:24;17.20;84.60
3678;DHT22;1855;50.934;6.958;2023-10-08T04:08:56;17.20;84.60
3678;DHT22;1855;50.934;6.958;2023-10-08T04:11:37;17.20;84.80
3678;DHT22;1855;50.934;6.958;2023-10-08T04:14:18;17.30;85.00
3678;DHT22;1855;50.934;6.958;2023-10-08T04:16:46;17.30;84.90
3678;DHT22;1855;50.934;6.958;2023-10-08T04:19:17;17.20;84.70
3678;DHT22;1855;50.934;6.958;2023-10-08T04:21:44;17.20;84.70
3678;DHT22;1855;50.934;6.958;2023-10-08T04:24:11;17.20;85.50
3678;DHT22;1855;50.934;6.958;2023-10-08T04:26:40;17.10;85.70
3678;DHT22;1855;50.934;6.958;2023-10-08T04:29:08;17.10;85.60
3678;DHT22;1855;50.934;6.958;2023-10-08T04:31:35;17.10;85.50
3678;DHT22;1855;50.934;6.958;2023-10-08T04:34:05;17.10;86.20
3678;DHT22;1855;50.934;6.958;2023-10-08T04:36:40;17.00;86.00
3678;DHT22;1855;50.934;6.958;2023-10-08T04:39:07;17.00;86.00
3678;DHT22;1855;50.934;6.958;2023-10-08T04:41:39;17.00;86.10
3678;DHT22;1855;50.934;6.958;2023-10-08T04:44:08;16.90;86.40
3678;DHT22;1855;50.934;6.958;2023-10-08T04:46:41;16.90;86.30
3678;DHT22;1855;50.934;6.958;2023-10-08T04:49:19;16.90;86.60
3678;DHT22;1855;50.934;6.958;2023-10-08T04:51:54;16.90;87.00
3678;DHT22;1855;50.934;6.958;2023-10-08T04:54:23;16.80;86.70
3678;DHT22;1855;50.934;6.958;2023-10-08T04:56:50;16.80;86.80
3678;DHT22;1855;50.934;6.958;2023-10-08T04:59:18;16.80;86.90
3678;DHT22;1855;50.934;6.958;2023-10-08T05:01:48;16.80;86.90
3678;DHT22;1855;50.934;6.958;2023-10-08T05:04:36;16.80;86.90
3678;DHT22;1855;50.934;6.958;2023-10-08T05:07:21;16.80;87.30
3678;DHT22;1855;50.934;6.958;2023-10-08T05:10:06;16.80;87.60
3678;DHT22;1855;50.934;6.958;2023-10-08T05:12:37;16.80;88.70
3678;DHT22;1855;50.934;6.958;2023-10-08T05:15:12;16.80;87.70
3678;DHT22;1855;50.934;6.958;2023-10-08T05:17:59;16.70;87.60
3678;DHT22;1855;50.934;6.958;2023-10-08T05:20:41;16.70;87.70
3678;DHT22;1855;50.934;6.958;2023-10-08T05:23:25;16.70;87.50
3678;DHT22;1855;50.934;6.958;2023-10-08T05:26:10;16.70;87.60
3678;DHT22;1855;50.934;6.958;2023-10-08T05:28:46;16.70;87.60
3678;DHT22;1855;50.934;6.958;2023-10-08T05:31:26;16.70;87.90
3678;DHT22;1855;50.934;6.958;2023-10-08T05:34:12;16.60;88.10
3678;DHT22;1855;50.934;6.958;2023-10-08T05:36:44;16.60;88.40
3678;DHT22;1855;50.934;6.958;2023-10-08T05:39:37;16.60;88.30
3678;DHT22;1855;50.934;6.958;2023-10-08T05:42:06;16.50;89.40
3678;DHT22;1855;50.934;6.958;2023-10-08T05:44:43;16.50;89.40
3678;DHT22;1855;50.934;6.958;2023-10-08T05:47:12;16.50;90.20
3678;DHT22;1855;50.934;6.958;2023-10-08T05:50:04;16.50;90.10
3678;DHT22;1855;50.934;6.958;2023-10-08T05:52:55;16.40;90.00
3678;DHT22;1855;50.934;6.958;2023-10-08T05:55:40;16.40;90.10
3678;DHT22;1855;50.934;6.958;2023-10-08T05:58:13;16.40;90.20
3678;DHT22;1855;50.934;6.958;2023-10-08T06:00:50;16.40;90.60
3678;DHT22;1855;50.934;6.958;2023-10-08T06:03:33;16.40;91.10
3678;DHT22;1855;50.934;6.958;2023-10-08T06:06:11;16.40;91.60
3678;DHT22;1855;50.934;6.958;2023-10-08T06:09:03;16.30;91.20
3678;DHT22;1855;50.934;6.958;2023-10-08T06:11:48;16.40;91.70
3678;DHT22;1855;50.934;6.958;2023-10-08T06:14:35;16.30;91.70
3678;DHT22;1855;50.934;6.958;2023-10-08T06:17:33;16.40;91.50
3678;DHT22;1855;50.934;6.958;2023-10-08T06:20:18;16.40;91.70
3678;DHT22;1855;50.934;6.958;2023-10-08T06:22:51;16.40;91.60
3678;DHT22;1855;50.934;6.958;2023-10-08T06:25:22;16.40;91.50
3678;DHT22;1855;50.934;6.958;2023-10-08T06:27:50;16.50;91.60
3678;DHT22;1855;50.934;6.958;2023-10-08T06:30:21;16.50;91.80
3678;DHT22;1855;50.934;6.958;2023-10-08T06:32:50;16.50;90.90
3678;DHT22;1855;50.934;6.958;2023-10-08T06:35:19;16.50;90.50
3678;DHT22;1855;50.934;6.958;2023-10-08T06:37:50;16.60;90.50
3678;DHT22;1855;50.934;6.958;2023-10-08T06:40:20;16.60;90.50
3678;DHT22;1855;50.934;6.958;2023-10-08T06:43:14;16.60;90.30
3678;DHT22;1855;50.934;6.958;2023-10-08T06:45:43;16.60;90.50
3678;DHT22;1855;50.934;6.958;2023-10-08T06:48:13;16.60;90.40
3678;DHT22;1855;50.934;6.958;2023-10-08T06:50:44;16.50;90.50
3678;DHT22;1855;50.934;6.958;2023-10-08T06:53:11;16.60;90.60
3678;DHT22;1855;50.934;6.958;2023-10-08T06:55:39;16.60;90.60
3678;DHT22;1855;50.934;6.958;2023-10-08T06:58:07;16.60;90.70
3678;DHT22;1855;50.934;6.958;2023-10-08T07:00:35;16.60;90.60
3678;DHT22;1855;50.934;6.958;2023-10-08T07:03:06;16.60;90.80
3678;DHT22;1855;50.934;6.958;2023-10-08T07:05:36;16.70;90.60
3678;DHT22;1855;50.934;6.958;2023-10-08T07:08:07;16.80;90.60
3678;DHT22;1855;50.934;6.958;2023-10-08T07:10:34;16.80;91.10
3678;DHT22;1855;50.934;6.958;2023-10-08T07:13:01;16.90;90.60
3678;DHT22;1855;50.934;6.958;2023-10-08T07:15:30;17.00;90.40
3678;DHT22;1855;50.934;6.958;2023-10-08T07:17:58;17.00;90.10
3678;DHT22;1855;50.934;6.958;2023-10-08T07:20:35;17.00;90.10
3678;DHT22;1855;50.934;6.958;2023-10-08T07:23:05;17.10;90.30
3678;DHT22;1855;50.934;6.958;2023-10-08T07:25:37;17.10;90.70
3678;DHT22;1855;50.934;6.958;2023-10-08T07:28:04;17.10;90.60
3678;DHT22;1855;50.934;6.958;2023-10-08T07:30:37;17.10;90.40
3678;DHT22;1855;50.934;6.958;2023-10-08T07:33:10;17.10;90.40
3678;DHT22;1855;50.934;6.958;2023-10-08T07:35:43;17.10;90.30
3678;DHT22;1855;50.934;6.958;2023-10-08T07:38:17;17.10;90.20
3678;DHT22;1855;50.934;6.958;2023-10-08T07:40:43;17.10;90.20
3678;DHT22;1855;50.934;6.958;2023-10-08T07:43:10;17.20;90.30
3678;DHT22;1855;50.934;6.958;2023-10-08T07:45:38;17.20;90.20
3678;DHT22;1855;50.934;6.958;2023-10-08T07:48:05;17.20;90.30
3678;DHT22;1855;50.934;6.958;2023-10-08T07:50:41;17.30;90.70
3678;DHT22;1855;50.934;6.958;2023-10-08T07:53:08;17.40;90.80
3678;DHT22;1855;50.934;6.958;2023-10-08T07:55:46;17.50;89.90
3678;DHT22;1855;50.934;6.958;2023-10-08T07:58:17;17.60;90.00
3678;DHT22;1855;50.934;6.958;2023-10-08T08:00:45;17.60;90.10
3678;DHT22;1855;50.934;6.958;2023-10-08T08:03:19;17.70;90.40
3678;DHT22;1855;50.934;6.958;2023-10-08T08:05:47;17.80;89.40
3678;DHT22;1855;50.934;6.958;2023-10-08T08:08:21;17.80;88.90
3678;DHT22;1855;50.934;6.958;2023-10-08T08:10:49;17.90;88.40
3678;DHT22;1855;50.934;6.958;2023-10-08T08:13:23;17.90;89.30
3678;DHT22;1855;50.934;6.958;2023-10-08T08:15:54;18.00;87.70
3678;DHT22;1855;50.934;6.958;2023-10-08T08:18:24;18.20;88.20
3678;DHT22;1855;50.934;6.958;2023-10-08T08:21:00;18.30;88.50
3678;DHT22;1855;50.934;6.958;2023-10-08T08:23:28;18.40;87.00
3678;DHT22;1855;50.934;6.958;2023-10-08T08:25:55;18.60;87.40
3678;DHT22;1855;50.934;6.958;2023-10-08T08:28:32;18.60;86.60
3678;DHT22;1855;50.934;6.958;2023-10-08T08:31:02;18.70;86.00
3678;DHT22;1855;50.934;6.958;2023-10-08T08:33:30;18.70;87.00
3678;DHT22;1855;50.934;6.958;2023-10-08T08:36:18;18.70;87.50
3678;DHT22;1855;50.934;6.958;2023-10-08T08:38:46;18.70;87.00
3678;DHT22;1855;50.934;6.958;2023-10-08T08:41:13;18.70;86.60
3678;DHT22;1855;50.934;6.958;2023-10-08T08:43:43;18.70;86.10
3678;DHT22;1855;50.934;6.958;2023-10-08T08:46:10;18.70;86.50
3678;DHT22;1855;50.934;6.958;2023-10-08T08:48:40;18.70;86.20
3678;DHT22;1855;50.934;6.958;2023-10-08T08:51:07;18.70;87.00
3678;DHT22;1855;50.934;6.958;2023-10-08T08:53:36;18.80;86.30
3678;DHT22;1855;50.934;6.958;2023-10-08T08:56:06;18.80;86.20
3678;DHT22;1855;50.934;6.958;2023-10-08T08:58:35;18.90;86.20
3678;DHT22;1855;50.934;6.958;2023-10-08T09:01:02;19.00;85.50
3678;DHT22;1855;50.934;6.958;2023-10-08T09:03:30;19.00;84.40
3678;DHT22;1855;50.934;6.958;2023-10-08T09:05:57;19.00;85.40
3678;DHT22;1855;50.934;6.958;2023-10-08T09:08:28;19.00;86.30
3678;DHT22;1855;50.934;6.958;2023-10-08T09:10:59;19.20;85.40
3678;DHT22;1855;50.934;6.958;2023-10-08T09:13:27;19.30;85.10
3678;DHT22;1855;50.934;6.958;2023-10-08T09:15:57;19.40;83.90
3678;DHT22;1855;50.934;6.958;2023-10-08T09:18:24;19.50;83.40
3678;DHT22;1855;50.934;6.958;2023-10-08T09:20:52;19.50;84.20
3678;DHT22;1855;50.934;6.958;2023-10-08T09:23:20;19.50;82.10
3678;DHT22;1855;50.934;6.958;2023-10-08T09:25:48;19.50;82.80
3678;DHT22;1855;50.934;6.958;2023-10-08T09:28:18;19.50;83.60
3678;DHT22;1855;50.934;6.958;2023-10-08T09:30:47;19.60;83.00
3678;DHT22;1855;50.934;6.958;2023-10-08T09:33:14;19.70;82.30
3678;DHT22;1855;50.934;6.958;2023-10-08T09:35:43;19.70;83.20
3678;DHT22;1855;50.934;6.958;2023-10-08T09:38:09;19.80;82.80
3678;DHT22;1855;50.934;6.958;2023-10-08T09:40:37;19.80;83.00
3678;DHT22;1855;50.934;6.958;2023-10-08T09:43:04;20.00;82.70
3678;DHT22;1855;50.934;6.958;2023-10-08T09:45:36;20.10;81.70
3678;DHT22;1855;50.934;6.958;2023-10-08T09:48:10;20.20;82.40
3678;DHT22;1855;50.934;6.958;2023-10-08T09:50:41;20.30;82.20
3678;DHT22;1855;50.934;6.958;2023-10-08T09:53:08;20.50;80.60
3678;DHT22;1855;50.934;6.958;2023-10-08T09:55:44;20.70;79.50
3678;DHT22;1855;50.934;6.958;2023-10-08T09:58:12;20.60;78.90
3678;DHT22;1855;50.934;6.958;2023-10-08T10:00:41;20.50;79.50
3678;DHT22;1855;50.934;6.958;2023-10-08T10:03:10;20.40;79.70
3678;DHT22;1855;50.934;6.958;2023-10-08T10:05:38;20.40;81.80
3678;DHT22;1855;50.934;6.958;2023-10-08T10:08:06;20.40;81.70
3678;DHT22;1855;50.934;6.958;2023-10-08T10:10:36;20.40;81.50
3678;DHT22;1855;50.934;6.958;2023-10-08T10:13:04;20.40;82.10
3678;DHT22;1855;50.934;6.958;2023-10-08T10:15:33;20.50;81.50
3678;DHT22;1855;50.934;6.958;2023-10-08T10:18:12;20.50;82.00
3678;DHT22;1855;50.934;6.958;2023-10-08T10:20:41;20.50;82.20
3678;DHT22;1855;50.934;6.958;2023-10-08T10:23:35;20.60;81.20
3678;DHT22;1855;50.934;6.958;2023-10-08T10:26:03;20.80;80.20
3678;DHT22;1855;50.934;6.958;2023-10-08T10:28:30;20.90;80.60
3678;DHT22;1855;50.934;6.958;2023-10-08T10:30:58;21.00;79.90
3678;DHT22;1855;50.934;6.958;2023-10-08T10:33:31;21.10;78.80
3678;DHT22;1855;50.934;6.958;2023-10-08T10:36:00;21.00;79.50
3678;DHT22;1855;50.934;6.958;2023-10-08T10:38:27;20.90;80.30
3678;DHT22;1855;50.934;6.958;2023-10-08T10:40:56;21.00;82.00
3678;DHT22;1855;50.934;6.958;2023-10-08T10:43:33;21.00;79.70
3678;DHT22;1855;50.934;6.958;2023-10-08T10:46:01;21.10;80.60
3678;DHT22;1855;50.934;6.958;2023-10-08T10:48:51;21.20;78.50
3678;DHT22;1855;50.934;6.958;2023-10-08T10:51:30;21.30;79.50
3678;DHT22;1855;50.934;6.958;2023-10-08T10:53:59;21.40;78.30
3678;DHT22;1855;50.934;6.958;2023-10-08T10:56:33;21.50;78.90
3678;DHT22;1855;50.934;6.958;2023-10-08T10:59:06;21.50;78.50
3678;DHT22;1855;50.934;6.958;2023-10-08T11:01:45;21.40;78.20
3678;DHT22;1855;50.934;6.958;2023-10-08T11:04:14;21.40;80.10
3678;DHT22;1855;50.934;6.958;2023-10-08T11:06:42;21.40;78.50
3678;DHT22;1855;50.934;6.958;2023-10-08T11:09:10;21.40;79.20
3678;DHT22;1855;50.934;6.958;2023-10-08T11:11:41;21.40;79.20
3678;DHT22;1855;50.934;6.958;2023-10-08T11:14:11;21.40;78.50
3678;DHT22;1855;50.934;6.958;2023-10-08T11:16:42;21.50;79.00
3678;DHT22;1855;50.934;6.958;2023-10-08T11:19:11;21.70;78.20
3678;DHT22;1855;50.934;6.958;2023-10-08T11:21:52;21.70;78.40
3678;DHT22;1855;50.934;6.958;2023-10-08T11:24:30;21.70;78.00
3678;DHT22;1855;50.934;6.958;2023-10-08T11:26:59;21.60;78.30
3678;DHT22;1855;50.934;6.958;2023-10-08T11:29:42;21.50;79.00
3678;DHT22;1855;50.934;6.958;2023-10-08T11:32:10;21.50;80.10
3678;DHT22;1855;50.934;6.958;2023-10-08T11:34:38;21.60;81.00
3678;DHT22;1855;50.934;6.958;2023-10-08T11:37:06;21.80;79.00
3678;DHT22;1855;50.934;6.958;2023-10-08T11:39:45;21.80;78.70
3678;DHT22;1855;50.934;6.958;2023-10-08T11:42:12;21.90;78.20
3678;DHT22;1855;50.934;6.958;2023-10-08T11:45:06;21.80;78.90
3678;DHT22;1855;50.934;6.958;2023-10-08T11:47:49;21.80;79.30
3678;DHT22;1855;50.934;6.958;2023-10-08T11:50:23;21.70;80.10
3678;DHT22;1855;50.934;6.958;2023-10-08T11:52:57;21.90;79.30
3678;DHT22;1855;50.934;6.958;2023-10-08T11:55:28;22.00;79.50
3678;DHT22;1855;50.934;6.958;2023-10-08T11:57:55;22.10;80.00
3678;DHT22;1855;50.934;6.958;2023-10-08T12:00:23;22.40;78.10
3678;DHT22;1855;50.934;6.958;2023-10-08T12:02:52;22.80;77.00
3678;DHT22;1855;50.934;6.958;2023-10-08T12:05:20;23.10;75.30
3678;DHT22;1855;50.934;6.958;2023-10-08T12:07:49;23.30;74.40
3678;DHT22;1855;50.934;6.958;2023-10-08T12:10:19;23.40;75.00
3678;DHT22;1855;50.934;6.958;2023-10-08T12:12:49;23.40;73.90
3678;DHT22;1855;50.934;6.958;2023-10-08T12:15:18;23.40;74.30
3678;DHT22;1855;50.934;6.958;2023-10-08T12:17:47;23.40;75.30
3678;DHT22;1855;50.934;6.958;2023-10-08T12:20:35;23.40;73.80
3678;DHT22;1855;50.934;6.958;2023-10-08T12:23:03;23.30;77.30
3678;DHT22;1855;50.934;6.958;2023-10-08T12:25:31;23.30;77.70
3678;DHT22;1855;50.934;6.958;2023-10-08T12:27:59;23.30;76.40
3678;DHT22;1855;50.934;6.958;2023-10-08T12:30:29;23.30;77.10
3678;DHT22;1855;50.934;6.958;2023-10-08T12:32:58;23.20;77.50
3678;DHT22;1855;50.934;6.958;2023-10-08T12:35:26;23.00;73.90
3678;DHT22;1855;50.934;6.958;2023-10-08T12:37:55;22.80;74.30
3678;DHT22;1855;50.934;6.958;2023-10-08T12:40:22;22.50;78.70
3678;DHT22;1855;50.934;6.958;2023-10-08T12:42:51;22.40;78.80
3678;DHT22;1855;50.934;6.958;2023-10-08T12:45:18;22.30;79.50
3678;DHT22;1855;50.934;6.958;2023-10-08T12:47:48;22.30;80.80
3678;DHT22;1855;50.934;6.958;2023-10-08T12:50:16;22.20;83.10
3678;DHT22;1855;50.934;6.958;2023-10-08T12:52:49;22.20;81.70
3678;DHT22;1855;50.934;6.958;2023-10-08T12:55:21;22.10;80.40
3678;DHT22;1855;50.934;6.958;2023-10-08T12:57:51;22.00;81.40
3678;DHT22;1855;50.934;6.958;2023-10-08T13:00:22;21.90;82.30
3678;DHT22;1855;50.934;6.958;2023-10-08T13:02:50;21.80;81.30
3678;DHT22;1855;50.934;6.958;2023-10-08T13:05:20;21.70;82.20
3678;DHT22;1855;50.934;6.958;2023-10-08T13:07:53;21.60;86.80
3678;DHT22;1855;50.934;6.958;2023-10-08T13:10:21;21.60;83.70
3678;DHT22;1855;50.934;6.958;2023-10-08T13:12:48;21.50;82.60
3678;DHT22;1855;50.934;6.958;2023-10-08T13:15:16;21.50;86.50
3678;DHT22;1855;50.934;6.958;2023-10-08T13:17:43;21.50;83.30
3678;DHT22;1855;50.934;6.958;2023-10-08T13:20:11;21.50;83.50
3678;DHT22;1855;50.934;6.958;2023-10-08T13:22:38;21.50;87.00
3678;DHT22;1855;50.934;6.958;2023-10-08T13:25:05;21.60;82.90
3678;DHT22;1855;50.934;6.958;2023-10-08T13:27:33;21.70;84.60
3678;DHT22;1855;50.934;6.958;2023-10-08T13:30:06;21.80;82.00
3678;DHT22;1855;50.934;6.958;2023-10-08T13:32:35;21.80;83.50
3678;DHT22;1855;50.934;6.958;2023-10-08T13:35:03;21.60;82.60
3678;DHT22;1855;50.934;6.958;2023-10-08T13:37:32;21.60;84.80
3678;DHT22;1855;50.934;6.958;2023-10-08T13:39:59;21.50;85.30
3678;DHT22;1855;50.934;6.958;2023-10-08T13:42:26;21.40;86.40
3678;DHT22;1855;50.934;6.958;2023-10-08T13:44:53;21.40;89.80
3678;DHT22;1855;50.934;6.958;2023-10-08T13:47:20;21.40;90.10
3678;DHT22;1855;50.934;6.958;2023-10-08T13:49:52;21.40;89.90
3678;DHT22;1855;50.934;6.958;2023-10-08T13:52:19;21.40;88.80
3678;DHT22;1855;50.934;6.958;2023-10-08T13:54:51;21.60;90.50
3678;DHT22;1855;50.934;6.958;2023-10-08T13:57:19;21.70;90.00
3678;DHT22;1855;50.934;6.958;2023-10-08T13:59:46;21.80;87.70
3678;DHT22;1855;50.934;6.958;2023-10-08T14:02:13;21.90;88.70
3678;DHT22;1855;50.934;6.958;2023-10-08T14:04:47;21.90;85.90
3678;DHT22;1855;50.934;6.958;2023-10-08T14:07:17;21.90;86.50
3678;DHT22;1855;50.934;6.958;2023-10-08T14:09:44;22.10;85.70
3678;DHT22;1855;50.934;6.958;2023-10-08T14:12:12;22.30;84.40
3678;DHT22;1855;50.934;6.958;2023-10-08T14:14:39;22.50;83.40
3678;DHT22;1855;50.934;6.958;2023-10-08T14:17:09;22.70;82.20
3678;DHT22;1855;50.934;6.958;2023-10-08T14:19:40;22.90;80.20
3678;DHT22;1855;50.934;6.958;2023-10-08T14:22:12;22.90;79.40
3678;DHT22;1855;50.934;6.958;2023-10-08T14:24:41;22.90;78.90
3678;DHT22;1855;50.934;6.958;2023-10-08T14:27:11;22.90;78.80
3678;DHT22;1855;50.934;6.958;2023-10-08T14:29:41;22.80;78.70
3678;DHT22;1855;50.934;6.958;2023-10-08T14:32:09;22.50;79.50
3678;DHT22;1855;50.934;6.958;2023-10-08T14:34:37;22.40;79.50
3678;DHT22;1855;50.934;6.958;2023-10-08T14:37:21;22.10;80.00
3678;DHT22;1855;50.934;6.958;2023-10-08T14:40:08;22.00;80.70
3678;DHT22;1855;50.934;6.958;2023-10-08T14:42:52;22.00;81.30
3678;DHT22;1855;50.934;6.958;2023-10-08T14:45:22;21.90;81.40
3678;DHT22;1855;50.934;6.958;2023-10-08T14:47:52;21.90;81.80
3678;DHT22;1855;50.934;6.958;2023-10-08T14:50:20;21.70;81.70
3678;DHT22;1855;50.934;6.958;2023-10-08T14:52:48;21.60;82.30
3678;DHT22;1855;50.934;6.958;2023-10-08T14:55:16;21.60;83.30
3678;DHT22;1855;50.934;6.958;2023-10-08T14:57:47;21.40;83.00
3678;DHT22;1855;50.934;6.958;2023-10-08T15:00:17;21.30;83.90
3678;DHT22;1855;50.934;6.958;2023-10-08T15:02:50;21.20;84.20
3678;DHT22;1855;50.934;6.958;2023-10-08T15:05:17;21.10;86.00
3678;DHT22;1855;50.934;6.958;2023-10-08T15:07:44;21.10;86.80
3678;DHT22;1855;50.934;6.958;2023-10-08T15:10:10;21.10;86.90
3678;DHT22;1855;50.934;6.958;2023-10-08T15:12:39;21.00;86.30
3678;DHT22;1855;50.934;6.958;2023-10-08T15:15:07;21.00;86.40
3678;DHT22;1855;50.934;6.958;2023-10-08T15:17:39;21.00;86.70
3678;DHT22;1855;50.934;6.958;2023-10-08T15:20:07;20.90;87.20
3678;DHT22;1855;50.934;6.958;2023-10-08T15:22:37;20.90;87.90
3678;DHT22;1855;50.934;6.958;2023-10-08T15:25:04;20.90;87.40
3678;DHT22;1855;50.934;6.958;2023-10-08T15:27:31;20.90;87.50
3678;DHT22;1855;50.934;6.958;2023-10-08T15:30:00;20.80;88.00
3678;DHT22;1855;50.934;6.958;2023-10-08T15:32:30;20.80;88.70
3678;DHT22;1855;50.934;6.958;2023-10-08T15:34:57;20.90;88.70
3678;DHT22;1855;50.934;6.958;2023-10-08T15:37:24;21.10;87.80
3678;DHT22;1855;50.934;6.958;2023-10-08T15:39:50;21.20;86.90
3678;DHT22;1855;50.934;6.958;2023-10-08T15:42:17;21.20;86.40
3678;DHT22;1855;50.934;6.958;2023-10-08T15:44:44;21.30;86.50
3678;DHT22;1855;50.934;6.958;2023-10-08T15:47:12;21.30;86.40
3678;DHT22;1855;50.934;6.958;2023-10-08T15:49:39;21.30;86.80
3678;DHT22;1855;50.934;6.958;2023-10-08T15:52:06;21.30;86.80
3678;DHT22;1855;50.934;6.958;2023-10-08T15:54:33;21.20;86.90
3678;DHT22;1855;50.934;6.958;2023-10-08T15:56:59;21.20;87.10
3678;DHT22;1855;50.934;6.958;2023-10-08T15:59:26;21.10;87.60
3678;DHT22;1855;50.934;6.958;2023-10-08T16:01:53;21.10;88.10
3678;DHT22;1855;50.934;6.958;2023-10-08T16:04:21;21.00;88.40
3678;DHT22;1855;50.934;6.958;2023-10-08T16:06:51;21.00;88.50
3678;DHT22;1855;50.934;6.958;2023-10-08T16:09:18;21.00;89.10
3678;DHT22;1855;50.934;6.958;2023-10-08T16:11:47;20.80;89.70
3678;DHT22;1855;50.934;6.958;2023-10-08T16:14:14;20.70;89.60
3678;DHT22;1855;50.934;6.958;2023-10-08T16:16:41;20.60;90.20
3678;DHT22;1855;50.934;6.958;2023-10-08T16:19:08;20.50;90.50
3678;DHT22;1855;50.934;6.958;2023-10-08T16:21:37;20.40;90.50
3678;DHT22;1855;50.934;6.958;2023-10-08T16:24:05;20.30;90.80
3678;DHT22;1855;50.934;6.958;2023-10-08T16:26:32;20.20;91.10
3678;DHT22;1855;50.934;6.958;2023-10-08T16:28:59;20.20;91.20